createdAt,value
2022-08-01T00:00:05.166Z,58.78
2022-08-01T00:03:02.630Z,58.94
2022-08-01T00:06:00.088Z,59.17
2022-08-01T00:08:57.562Z,59.33
2022-08-01T00:11:56.296Z,59.47
2022-08-01T00:14:57.531Z,59.69
2022-08-01T00:17:55.002Z,59.76
2022-08-01T00:20:52.477Z,59.97
2022-08-01T00:23:49.965Z,60.13
2022-08-01T00:26:47.453Z,60.35
2022-08-01T00:30:11.426Z,60.51
2022-08-01T00:33:02.366Z,60.60
2022-08-01T00:35:59.833Z,60.74
2022-08-01T00:38:58.134Z,60.85
2022-08-01T00:41:59.691Z,60.94
2022-08-01T00:44:57.612Z,61.03
2022-08-01T00:47:55.592Z,61.11
2022-08-01T00:50:53.125Z,61.13
2022-08-01T00:53:51.670Z,61.28
2022-08-01T00:56:50.129Z,61.25
2022-08-01T00:59:47.617Z,61.37
2022-08-01T01:02:46.001Z,61.51
2022-08-01T01:05:43.481Z,61.40
2022-08-01T01:08:40.918Z,61.18
2022-08-01T01:11:38.380Z,61.44
2022-08-01T01:14:35.890Z,61.21
2022-08-01T01:17:51.104Z,61.39
2022-08-01T01:20:49.324Z,61.46
2022-08-01T01:23:46.801Z,61.53
2022-08-01T01:26:44.323Z,61.67
2022-08-01T01:30:00.068Z,61.48
2022-08-01T01:32:58.456Z,61.55
2022-08-01T01:35:55.911Z,61.31
2022-08-01T01:38:53.413Z,61.49
2022-08-01T01:41:50.900Z,61.48
2022-08-01T01:44:48.372Z,61.49
2022-08-01T01:47:45.865Z,61.38
2022-08-01T01:50:43.535Z,61.37
2022-08-01T01:53:40.997Z,61.16
2022-08-01T01:56:49.696Z,61.03
2022-08-01T01:59:47.153Z,60.76
2022-08-01T02:02:44.643Z,60.67
2022-08-01T02:05:43.299Z,60.52
2022-08-01T02:08:40.775Z,60.55
2022-08-01T02:11:38.250Z,60.61
2022-08-01T02:14:55.697Z,60.51
2022-08-01T02:17:53.177Z,60.28
2022-08-01T02:20:50.839Z,60.13
2022-08-01T02:23:51.378Z,59.82
2022-08-01T02:26:48.909Z,59.63
2022-08-01T02:29:46.405Z,59.57
2022-08-01T02:32:43.895Z,59.60
2022-08-01T02:36:31.362Z,59.45
2022-08-01T02:38:59.492Z,59.35
2022-08-01T02:41:56.961Z,59.20
2022-08-01T02:44:54.986Z,59.11
2022-08-01T02:47:52.468Z,58.94
2022-08-01T02:50:50.275Z,58.88
2022-08-01T02:53:48.416Z,58.84
2022-08-01T02:56:45.907Z,58.79
2022-08-01T02:59:43.387Z,58.84
2022-08-01T03:02:42.503Z,58.84
2022-08-01T03:05:41.096Z,58.79
2022-08-01T03:08:38.554Z,58.70
2022-08-01T03:11:36.049Z,58.64
2022-08-01T03:14:33.513Z,58.57
2022-08-01T03:17:31.326Z,58.54
2022-08-01T03:20:28.825Z,58.49
2022-08-01T03:23:37.564Z,58.41
2022-08-01T03:26:35.863Z,58.25
2022-08-01T03:29:33.330Z,58.14
2022-08-01T03:32:30.945Z,58.01
2022-08-01T03:35:29.112Z,57.92
2022-08-01T03:38:26.601Z,57.73
2022-08-01T03:41:24.042Z,57.63
2022-08-01T03:44:21.527Z,57.55
2022-08-01T03:47:19.011Z,57.47
2022-08-01T03:50:17.838Z,57.38
2022-08-01T03:53:15.313Z,57.24
2022-08-01T03:56:13.076Z,57.16
2022-08-01T03:59:10.562Z,57.14
2022-08-01T04:02:08.269Z,56.99
2022-08-01T04:05:05.828Z,57.04
2022-08-01T04:08:03.953Z,57.02
2022-08-01T04:11:01.415Z,56.80
2022-08-01T04:13:59.335Z,56.66
2022-08-01T04:16:56.806Z,56.82
2022-08-01T04:19:54.300Z,56.62
2022-08-01T04:22:51.754Z,56.68
2022-08-01T04:25:49.214Z,56.65
2022-08-01T04:28:46.669Z,56.62
2022-08-01T04:31:44.126Z,56.62
2022-08-01T04:34:41.608Z,56.53
2022-08-01T04:37:39.064Z,56.57
2022-08-01T04:40:37.007Z,56.60
2022-08-01T04:43:34.483Z,56.58
2022-08-01T04:46:32.020Z,56.70
2022-08-01T04:49:31.272Z,56.59
2022-08-01T04:52:43.219Z,56.64
2022-08-01T04:55:41.296Z,56.58
2022-08-01T04:58:38.748Z,56.55
2022-08-01T05:01:36.262Z,56.33
2022-08-01T05:04:33.819Z,56.33
2022-08-01T05:07:31.304Z,56.26
2022-08-01T05:10:42.901Z,56.27
2022-08-01T05:13:40.367Z,56.29
2022-08-01T05:16:37.844Z,56.42
2022-08-01T05:19:35.300Z,56.27
2022-08-01T05:22:32.762Z,56.74
2022-08-01T05:25:56.168Z,57.23
2022-08-01T05:28:47.875Z,57.53
2022-08-01T05:31:45.339Z,57.96
2022-08-01T05:34:43.450Z,58.64
2022-08-01T05:37:40.975Z,58.91
2022-08-01T05:40:38.430Z,58.78
2022-08-01T05:43:35.906Z,58.84
2022-08-01T05:46:33.384Z,58.88
2022-08-01T05:49:30.871Z,59.01
2022-08-01T05:52:28.381Z,59.25
2022-08-01T05:55:25.878Z,59.35
2022-08-01T05:58:23.361Z,59.63
2022-08-01T06:01:20.848Z,59.50
2022-08-01T06:04:18.337Z,59.49
2022-08-01T06:07:15.848Z,59.72
2022-08-01T06:10:13.332Z,59.83
2022-08-01T06:13:10.775Z,59.63
2022-08-01T06:16:08.235Z,58.20
2022-08-01T06:19:05.708Z,58.18
2022-08-01T06:22:03.275Z,57.42
2022-08-01T06:25:00.852Z,57.51
2022-08-01T06:27:58.320Z,56.43
2022-08-01T06:30:55.838Z,55.78
2022-08-01T06:33:53.349Z,55.29
2022-08-01T06:36:50.805Z,54.69
2022-08-01T06:39:48.291Z,54.52
2022-08-01T06:42:46.883Z,54.39
2022-08-01T06:45:44.548Z,53.98
2022-08-01T06:48:42.027Z,53.18
2022-08-01T06:51:39.490Z,52.85
2022-08-01T06:54:36.949Z,52.57
2022-08-01T06:57:34.758Z,52.15
2022-08-01T07:00:32.263Z,51.85
2022-08-01T07:03:52.240Z,51.30
2022-08-01T07:06:47.296Z,50.94
2022-08-01T07:09:44.782Z,50.30
2022-08-01T07:12:42.483Z,49.60
2022-08-01T07:15:39.937Z,49.58
2022-08-01T07:18:37.679Z,49.34
2022-08-01T07:21:40.497Z,49.19
2022-08-01T07:24:38.863Z,49.38
2022-08-01T07:27:43.399Z,49.44
2022-08-01T07:30:43.181Z,49.47
2022-08-01T07:33:48.432Z,49.10
2022-08-01T07:36:46.705Z,48.89
2022-08-01T07:39:44.162Z,48.93
2022-08-01T07:42:44.451Z,48.98
2022-08-01T07:45:46.396Z,48.75
2022-08-01T07:48:44.181Z,48.45
2022-08-01T07:51:41.637Z,48.44
2022-08-01T07:54:39.153Z,48.37
2022-08-01T07:57:36.626Z,48.54
2022-08-01T08:00:34.111Z,48.80
2022-08-01T08:03:31.644Z,49.08
2022-08-01T08:06:29.126Z,49.31
2022-08-01T08:09:26.608Z,49.66
2022-08-01T08:12:29.658Z,49.70
2022-08-01T08:15:27.578Z,49.84
2022-08-01T08:18:25.100Z,49.75
2022-08-01T08:21:22.573Z,49.56
2022-08-01T08:24:26.854Z,49.43
2022-08-01T08:27:24.652Z,49.45
2022-08-01T08:30:22.188Z,49.37
2022-08-01T08:33:19.657Z,49.05
2022-08-01T08:36:17.382Z,48.47
2022-08-01T08:39:15.245Z,47.86
2022-08-01T08:42:15.072Z,47.35
2022-08-01T08:45:12.592Z,46.73
2022-08-01T08:48:10.068Z,46.51
2022-08-01T08:51:09.845Z,45.83
2022-08-01T08:54:07.349Z,45.17
2022-08-01T08:57:04.835Z,44.91
2022-08-01T09:00:02.896Z,44.46
2022-08-01T09:03:00.376Z,43.97
2022-08-01T09:05:57.878Z,43.31
2022-08-01T09:08:55.467Z,42.69
2022-08-01T09:11:57.039Z,42.63
2022-08-01T09:14:55.532Z,41.93
2022-08-01T09:17:52.996Z,41.44
2022-08-01T09:20:50.482Z,41.40
2022-08-01T09:23:53.515Z,41.33
2022-08-01T09:26:53.579Z,41.40
2022-08-01T09:30:00.586Z,41.22
2022-08-01T09:33:01.736Z,41.15
2022-08-01T09:36:04.629Z,41.10
2022-08-01T09:39:02.087Z,41.00
2022-08-01T09:41:59.582Z,40.28
2022-08-01T09:44:57.050Z,40.30
2022-08-01T09:47:54.567Z,39.90
2022-08-01T09:50:52.200Z,39.14
2022-08-01T09:53:52.605Z,38.79
2022-08-01T09:56:51.004Z,37.68
2022-08-01T09:59:58.290Z,37.23
2022-08-01T10:02:57.397Z,36.62
2022-08-01T10:06:07.905Z,36.15
2022-08-01T10:09:05.375Z,35.42
2022-08-01T10:12:02.866Z,35.90
2022-08-01T10:15:00.341Z,35.60
2022-08-01T10:17:57.825Z,35.70
2022-08-01T10:20:56.800Z,35.97
2022-08-01T10:23:57.748Z,35.71
2022-08-01T10:27:05.497Z,35.71
2022-08-01T10:30:14.169Z,35.15
2022-08-01T10:33:52.593Z,34.82
2022-08-01T10:36:40.863Z,34.96
2022-08-01T10:39:38.612Z,34.67
2022-08-01T10:42:36.731Z,34.65
2022-08-01T10:45:34.490Z,34.11
2022-08-01T10:48:32.317Z,34.20
2022-08-01T10:51:51.379Z,34.15
2022-08-01T10:54:52.605Z,33.97
2022-08-01T10:57:52.954Z,33.83
2022-08-01T11:00:50.732Z,34.29
2022-08-01T11:03:57.197Z,34.08
2022-08-01T11:06:56.720Z,33.96
2022-08-01T11:09:54.200Z,33.40
2022-08-01T11:12:51.728Z,32.65
2022-08-01T11:16:13.873Z,31.82
2022-08-01T11:19:22.014Z,31.56
2022-08-01T11:22:25.820Z,30.60
2022-08-01T11:26:05.562Z,30.14
2022-08-01T11:28:59.469Z,29.57
2022-08-01T11:32:01.550Z,29.03
2022-08-01T11:34:59.813Z,28.34
2022-08-01T11:37:59.250Z,27.58
2022-08-01T11:40:57.340Z,27.46
2022-08-01T11:43:54.877Z,27.13
2022-08-01T11:46:52.663Z,26.27
2022-08-01T11:49:56.349Z,26.72
2022-08-01T11:52:53.990Z,26.44
2022-08-01T11:55:51.991Z,26.31
2022-08-01T11:58:50.194Z,26.30
2022-08-01T12:01:47.655Z,25.93
2022-08-01T12:04:45.557Z,26.01
2022-08-01T12:07:43.073Z,26.04
2022-08-01T12:10:47.243Z,26.31
2022-08-01T12:13:49.186Z,26.85
2022-08-01T12:16:46.623Z,27.51
2022-08-01T12:19:44.099Z,28.42
2022-08-01T12:22:42.161Z,29.14
2022-08-01T12:25:40.341Z,29.65
2022-08-01T12:28:38.033Z,28.60
2022-08-01T12:31:35.545Z,28.37
2022-08-01T12:34:35.272Z,28.87
2022-08-01T12:37:32.810Z,29.10
2022-08-01T12:40:30.287Z,29.41
2022-08-01T12:43:29.483Z,29.91
2022-08-01T12:46:28.271Z,30.03
2022-08-01T12:49:25.913Z,30.51
2022-08-01T12:52:26.779Z,30.90
2022-08-01T12:55:33.714Z,31.32
2022-08-01T12:58:32.262Z,31.81
2022-08-01T13:01:30.618Z,32.67
2022-08-01T13:04:28.325Z,33.37
2022-08-01T13:07:25.808Z,33.83
2022-08-01T13:10:23.273Z,34.61
2022-08-01T13:13:28.686Z,35.25
2022-08-01T13:16:43.327Z,37.23
2022-08-01T13:19:43.986Z,38.28
2022-08-01T13:22:41.639Z,38.76
2022-08-01T13:25:39.217Z,38.16
2022-08-01T13:28:37.971Z,38.10
2022-08-01T13:31:35.713Z,36.99
2022-08-01T13:34:33.315Z,36.05
2022-08-01T13:37:30.793Z,35.66
2022-08-01T13:40:29.924Z,34.85
2022-08-01T13:43:31.666Z,34.47
2022-08-01T13:46:49.254Z,34.28
2022-08-01T13:49:47.657Z,34.13
2022-08-01T13:52:45.211Z,33.77
2022-08-01T13:55:42.695Z,33.41
2022-08-01T13:58:40.349Z,33.36
2022-08-01T14:01:37.874Z,32.58
2022-08-01T14:04:35.437Z,32.38
2022-08-01T14:07:32.931Z,31.84
2022-08-01T14:10:30.917Z,32.19
2022-08-01T14:13:33.602Z,31.98
2022-08-01T14:16:34.719Z,32.40
2022-08-01T14:19:38.634Z,31.87
2022-08-01T14:22:37.251Z,31.83
2022-08-01T14:26:04.292Z,31.95
2022-08-01T14:28:52.616Z,31.87
2022-08-01T14:31:50.103Z,31.78
2022-08-01T14:34:47.843Z,32.09
2022-08-01T14:37:45.332Z,32.13
2022-08-01T14:40:43.348Z,32.48
2022-08-01T14:43:40.798Z,32.63
2022-08-01T14:46:38.322Z,33.03
2022-08-01T14:49:54.960Z,32.86
2022-08-01T14:52:52.851Z,32.92
2022-08-01T14:55:50.326Z,32.59
2022-08-01T14:58:48.558Z,32.79
2022-08-01T15:01:46.328Z,32.89
2022-08-01T15:04:43.815Z,33.09
2022-08-01T15:07:51.723Z,33.12
2022-08-01T15:10:51.168Z,33.44
2022-08-01T15:14:09.297Z,33.65
2022-08-01T15:17:08.879Z,33.86
2022-08-01T15:20:06.556Z,34.03
2022-08-01T15:23:04.087Z,34.05
2022-08-01T15:26:01.547Z,34.02
2022-08-01T15:28:59.000Z,34.28
2022-08-01T15:31:56.484Z,34.41
2022-08-01T15:34:54.078Z,34.49
2022-08-01T15:37:52.160Z,34.66
2022-08-01T15:40:49.632Z,34.76
2022-08-01T15:43:47.146Z,35.13
2022-08-01T15:46:53.645Z,35.28
2022-08-01T15:49:52.402Z,35.49
2022-08-01T15:52:50.271Z,35.69
2022-08-01T15:55:52.499Z,35.77
2022-08-01T15:58:50.508Z,35.96
2022-08-01T16:01:51.198Z,36.06
2022-08-01T16:04:48.964Z,36.29
2022-08-01T16:07:59.290Z,36.47
2022-08-01T16:10:59.026Z,36.76
2022-08-01T16:13:56.497Z,37.01
2022-08-01T16:16:54.423Z,37.25
2022-08-01T16:20:05.233Z,37.37
2022-08-01T16:23:03.878Z,37.52
2022-08-01T16:26:03.604Z,37.55
2022-08-01T16:29:06.137Z,37.61
2022-08-01T16:32:21.940Z,37.82
2022-08-01T16:35:31.365Z,38.07
2022-08-01T16:38:38.439Z,38.32
2022-08-01T16:41:38.540Z,38.43
2022-08-01T16:44:39.349Z,38.51
2022-08-01T16:47:39.387Z,38.54
2022-08-01T16:50:37.821Z,38.50
2022-08-01T16:53:35.339Z,38.62
2022-08-01T16:56:33.475Z,38.83
2022-08-01T16:59:32.635Z,39.08
2022-08-01T17:02:35.990Z,39.33
2022-08-01T17:05:38.147Z,39.62
2022-08-01T17:08:46.893Z,39.91
2022-08-01T17:11:46.584Z,40.32
2022-08-01T17:14:47.510Z,40.59
2022-08-01T17:17:46.255Z,40.55
2022-08-01T17:20:48.699Z,40.57
2022-08-01T17:23:47.005Z,40.73
2022-08-01T17:26:45.282Z,40.88
2022-08-01T17:29:44.583Z,41.05
2022-08-01T17:32:47.755Z,41.29
2022-08-01T17:35:45.235Z,41.54
2022-08-01T17:38:42.737Z,41.73
2022-08-01T17:41:40.413Z,41.93
2022-08-01T17:44:37.870Z,42.29
2022-08-01T17:47:50.193Z,42.48
2022-08-01T17:50:48.645Z,42.71
2022-08-01T17:53:57.357Z,43.09
2022-08-01T17:56:55.506Z,43.19
2022-08-01T17:59:52.950Z,43.56
2022-08-01T18:02:50.435Z,43.80
2022-08-01T18:05:47.909Z,43.95
2022-08-01T18:08:50.800Z,44.17
2022-08-01T18:11:52.972Z,44.36
2022-08-01T18:14:50.441Z,44.59
2022-08-01T18:17:47.909Z,44.69
2022-08-01T18:20:45.412Z,44.99
2022-08-01T18:23:50.973Z,45.37
2022-08-01T18:26:49.199Z,45.64
2022-08-01T18:29:47.374Z,46.06
2022-08-01T18:32:45.909Z,46.18
2022-08-01T18:35:52.248Z,46.57
2022-08-01T18:38:51.365Z,46.70
2022-08-01T18:41:49.230Z,46.95
2022-08-01T18:44:46.700Z,47.22
2022-08-01T18:47:45.227Z,47.59
2022-08-01T18:50:42.726Z,48.02
2022-08-01T18:53:42.060Z,48.35
2022-08-01T18:56:39.694Z,48.71
2022-08-01T18:59:38.957Z,49.04
2022-08-01T19:02:37.598Z,49.31
2022-08-01T19:05:36.146Z,49.70
2022-08-01T19:08:33.731Z,49.98
2022-08-01T19:11:32.052Z,50.25
2022-08-01T19:14:31.356Z,50.51
2022-08-01T19:17:29.544Z,50.76
2022-08-01T19:20:28.034Z,50.93
2022-08-01T19:23:43.726Z,51.23
2022-08-01T19:26:44.113Z,51.38
2022-08-01T19:29:43.415Z,51.59
2022-08-01T19:32:50.833Z,51.80
2022-08-01T19:35:50.339Z,52.03
2022-08-01T19:38:48.679Z,52.31
2022-08-01T19:41:47.052Z,52.58
2022-08-01T19:44:44.997Z,52.82
2022-08-01T19:47:51.575Z,53.13
2022-08-01T19:50:54.384Z,53.32
2022-08-01T19:53:55.219Z,53.57
2022-08-01T19:56:53.114Z,53.85
2022-08-01T19:59:52.007Z,54.17
2022-08-01T20:02:49.516Z,54.26
2022-08-01T20:05:46.976Z,54.71
2022-08-01T20:08:44.467Z,55.05
2022-08-01T20:11:41.939Z,55.39
2022-08-01T20:14:39.445Z,55.88
2022-08-01T20:17:38.400Z,56.32
2022-08-01T20:20:35.883Z,56.65
2022-08-01T20:23:33.375Z,57.11
2022-08-01T20:26:30.864Z,57.52
2022-08-01T20:29:28.349Z,57.94
2022-08-01T20:32:25.987Z,58.19
2022-08-01T20:35:50.735Z,58.37
2022-08-01T20:38:40.916Z,58.59
2022-08-01T20:41:39.127Z,58.92
2022-08-01T20:44:36.600Z,59.16
2022-08-01T20:47:34.554Z,59.41
2022-08-01T20:50:52.698Z,59.59
2022-08-01T20:53:52.869Z,59.85
2022-08-01T20:56:50.355Z,60.34
2022-08-01T20:59:56.133Z,60.64
2022-08-01T21:02:54.672Z,60.89
2022-08-01T21:05:56.040Z,60.90
2022-08-01T21:08:56.722Z,61.08
2022-08-01T21:11:54.192Z,61.22
2022-08-01T21:14:51.681Z,61.50
2022-08-01T21:17:49.145Z,61.72
2022-08-01T21:20:46.615Z,61.86
2022-08-01T21:23:44.114Z,62.10
2022-08-01T21:26:41.590Z,62.01
2022-08-01T21:29:39.124Z,62.49
2022-08-01T21:32:36.585Z,62.33
2022-08-01T21:35:34.123Z,62.79
2022-08-01T21:38:31.596Z,62.66
2022-08-01T21:41:56.512Z,63.20
2022-08-01T21:44:46.882Z,63.11
2022-08-01T21:47:44.410Z,63.35
2022-08-01T21:50:41.902Z,63.20
2022-08-01T21:53:43.432Z,63.31
2022-08-01T21:56:45.920Z,63.24
2022-08-01T21:59:44.575Z,63.39
2022-08-01T22:02:42.051Z,63.53
2022-08-01T22:05:42.564Z,63.44
2022-08-01T22:08:48.827Z,63.32
2022-08-01T22:12:01.003Z,63.07
2022-08-01T22:14:58.975Z,63.44
2022-08-01T22:17:56.457Z,63.10
2022-08-01T22:20:53.925Z,63.04
2022-08-01T22:23:51.459Z,63.19
2022-08-01T22:26:49.176Z,63.16
2022-08-01T22:29:46.632Z,63.09
2022-08-01T22:32:44.125Z,63.15
2022-08-01T22:35:41.907Z,63.18
2022-08-01T22:38:39.415Z,63.31
2022-08-01T22:42:01.421Z,63.16
2022-08-01T22:44:54.338Z,63.07
2022-08-01T22:47:57.035Z,62.98
2022-08-01T22:50:54.484Z,62.69
2022-08-01T22:53:51.993Z,62.70
2022-08-01T22:56:49.495Z,62.55
2022-08-01T22:59:46.965Z,62.51
2022-08-01T23:02:44.440Z,62.12
2022-08-01T23:05:42.130Z,61.95
2022-08-01T23:08:50.108Z,61.88
2022-08-01T23:11:47.583Z,61.92
2022-08-01T23:14:45.060Z,61.86
2022-08-01T23:17:42.558Z,61.92
2022-08-01T23:20:40.013Z,61.83
2022-08-01T23:23:37.497Z,61.92
2022-08-01T23:26:34.956Z,62.21
2022-08-01T23:29:32.435Z,62.32
2022-08-01T23:32:29.910Z,62.20
2022-08-01T23:35:27.395Z,62.38
2022-08-01T23:38:25.440Z,62.52
2022-08-01T23:41:22.909Z,62.46
2022-08-01T23:44:20.388Z,62.53
2022-08-01T23:47:17.891Z,62.67
2022-08-01T23:50:15.439Z,62.68
2022-08-01T23:53:12.925Z,62.69
2022-08-01T23:56:10.738Z,62.72
2022-08-01T23:59:10.310Z,62.72
